createdAt,value
2022-12-03T00:00:13.284Z,9.00
2022-12-03T00:05:15.504Z,7.50
2022-12-03T00:10:17.632Z,12.25
2022-12-03T00:15:19.754Z,14.75
2022-12-03T00:20:24.274Z,13.50
2022-12-03T00:25:26.335Z,15.50
2022-12-03T00:30:28.248Z,13.00
2022-12-03T00:35:30.303Z,14.25
2022-12-03T00:40:32.326Z,19.00
2022-12-03T00:45:34.257Z,18.75
2022-12-03T00:50:36.208Z,22.75
2022-12-03T00:55:38.171Z,23.00
2022-12-03T01:00:40.072Z,25.50
2022-12-03T01:05:41.990Z,25.50
2022-12-03T01:10:43.928Z,23.25
2022-12-03T01:15:46.442Z,21.75
2022-12-03T01:20:48.377Z,23.75
2022-12-03T01:25:50.312Z,15.75
2022-12-03T01:31:10.909Z,23.00
2022-12-03T01:36:12.994Z,21.75
2022-12-03T01:41:17.828Z,30.50
2022-12-03T01:46:23.449Z,32.50
2022-12-03T01:51:25.499Z,22.75
2022-12-03T01:56:27.857Z,23.25
2022-12-03T02:01:29.807Z,15.75
2022-12-03T02:06:31.951Z,13.25
2022-12-03T02:11:36.950Z,15.25
2022-12-03T02:16:41.214Z,16.00
2022-12-03T02:21:57.387Z,12.50
2022-12-03T02:26:59.343Z,8.00
2022-12-03T02:32:01.531Z,10.00
2022-12-03T02:37:05.895Z,5.25
2022-12-03T02:42:27.826Z,5.25
2022-12-03T02:47:31.350Z,11.00
2022-12-03T02:52:33.412Z,8.00
2022-12-03T02:57:37.667Z,9.00
2022-12-03T03:02:41.828Z,8.00
2022-12-03T03:07:44.199Z,18.75
2022-12-03T03:12:46.319Z,3.00
2022-12-03T03:17:48.667Z,7.00
2022-12-03T03:22:50.592Z,8.75
2022-12-03T03:27:52.536Z,11.25
2022-12-03T03:32:54.770Z,6.00
2022-12-03T03:37:58.806Z,4.25
2022-12-03T03:43:01.234Z,1.00
2022-12-03T03:48:03.539Z,5.00
2022-12-03T03:53:06.144Z,6.75
2022-12-03T03:58:08.359Z,4.25
2022-12-03T04:03:11.174Z,8.00
2022-12-03T04:08:13.116Z,10.00
2022-12-03T04:13:15.098Z,10.75
2022-12-03T04:18:35.882Z,9.00
2022-12-03T04:23:37.789Z,13.00
2022-12-03T04:28:51.528Z,6.00
2022-12-03T04:34:11.623Z,11.75
2022-12-03T04:39:13.680Z,18.25
2022-12-03T04:44:33.509Z,11.50
2022-12-03T04:49:37.950Z,13.75
2022-12-03T04:54:40.789Z,9.00
2022-12-03T04:59:42.719Z,12.00
2022-12-03T05:04:44.671Z,14.25
2022-12-03T05:09:46.591Z,10.75
2022-12-03T05:14:48.544Z,11.00
2022-12-03T05:20:09.217Z,9.00
2022-12-03T05:25:11.181Z,8.00
2022-12-03T05:30:13.434Z,12.50
2022-12-03T05:35:15.610Z,8.75
2022-12-03T05:40:18.244Z,10.75
2022-12-03T05:45:24.882Z,13.00
2022-12-03T05:50:29.548Z,11.25
2022-12-03T05:55:31.538Z,8.50
2022-12-03T06:00:42.370Z,6.25
2022-12-03T06:05:44.890Z,5.25
2022-12-03T06:10:46.923Z,21.25
2022-12-03T06:15:48.995Z,13.75
2022-12-03T06:20:51.047Z,16.50
2022-12-03T06:25:53.135Z,16.25
2022-12-03T06:30:55.139Z,15.00
2022-12-03T06:35:57.219Z,18.50
2022-12-03T06:40:59.351Z,19.50
2022-12-03T06:46:01.543Z,11.25
2022-12-03T06:51:03.605Z,15.50
2022-12-03T06:56:06.017Z,15.00
2022-12-03T07:01:07.977Z,40.25
2022-12-03T07:06:10.324Z,15.50
2022-12-03T07:11:32.469Z,30.00
2022-12-03T07:16:36.504Z,22.00
2022-12-03T07:21:38.911Z,13.75
2022-12-03T07:26:41.010Z,25.75
2022-12-03T07:31:43.962Z,26.00
2022-12-03T07:36:46.016Z,15.75
2022-12-03T07:41:48.032Z,13.00
2022-12-03T07:46:50.064Z,33.50
2022-12-03T07:51:55.001Z,35.00
2022-12-03T07:57:01.422Z,40.25
2022-12-03T08:02:04.452Z,39.75
2022-12-03T08:07:06.565Z,32.50
2022-12-03T08:12:17.252Z,42.75
2022-12-03T08:17:21.398Z,40.00
2022-12-03T08:22:24.938Z,27.00
2022-12-03T08:27:26.915Z,36.75
2022-12-03T08:32:28.931Z,44.75
2022-12-03T08:37:30.948Z,40.00
2022-12-03T08:42:42.915Z,39.75
2022-12-03T08:47:44.912Z,40.75
2022-12-03T08:52:46.895Z,36.25
2022-12-03T08:57:48.895Z,32.25
2022-12-03T09:02:59.910Z,50.75
2022-12-03T09:08:02.128Z,38.25
2022-12-03T09:13:04.251Z,49.50
2022-12-03T09:18:07.562Z,38.00
2022-12-03T09:23:09.707Z,43.50
2022-12-03T09:28:11.646Z,43.25
2022-12-03T09:39:26.009Z,39.50
2022-12-03T09:44:34.667Z,41.25
2022-12-03T09:49:38.915Z,39.25
2022-12-03T09:54:46.873Z,34.50
2022-12-03T09:59:49.432Z,49.00
2022-12-03T10:04:53.394Z,42.00
2022-12-03T10:09:55.946Z,37.25
2022-12-03T10:15:06.075Z,39.00
2022-12-03T10:20:13.281Z,41.75
2022-12-03T10:25:19.088Z,48.25
2022-12-03T10:30:23.427Z,34.25
2022-12-03T10:35:37.676Z,38.50
2022-12-03T10:40:39.836Z,42.25
2022-12-03T10:45:43.425Z,60.50
2022-12-03T10:50:57.102Z,87.00
2022-12-03T10:56:02.041Z,49.00
2022-12-03T11:01:14.933Z,37.00
2022-12-03T11:06:19.786Z,46.75
2022-12-03T11:11:27.811Z,49.75
2022-12-03T11:16:41.848Z,60.75
2022-12-03T11:22:05.462Z,43.00
2022-12-03T11:27:15.881Z,42.00
2022-12-03T11:32:39.754Z,46.75
2022-12-03T11:37:41.951Z,55.00
2022-12-03T11:42:46.679Z,55.00
2022-12-03T11:47:58.003Z,41.25
2022-12-03T11:53:13.063Z,48.25
2022-12-03T11:58:29.823Z,39.75
2022-12-03T12:03:33.854Z,41.00
2022-12-03T12:08:39.468Z,40.75
2022-12-03T12:13:41.728Z,34.25
2022-12-03T12:18:55.064Z,28.75
2022-12-03T12:23:57.799Z,36.75
2022-12-03T12:28:59.984Z,33.00
2022-12-03T12:34:01.950Z,42.25
2022-12-03T12:39:12.051Z,42.75
2022-12-03T12:44:14.501Z,43.00
2022-12-03T12:49:16.503Z,43.75
2022-12-03T12:54:18.991Z,33.25
2022-12-03T12:59:36.335Z,43.25
2022-12-03T13:04:40.273Z,27.25
2022-12-03T13:09:42.392Z,35.75
2022-12-03T13:14:45.317Z,48.75
2022-12-03T13:19:52.105Z,46.75
2022-12-03T13:25:03.352Z,50.75
2022-12-03T13:30:17.474Z,42.50
2022-12-03T13:35:36.065Z,43.50
2022-12-03T13:40:40.201Z,43.25
2022-12-03T13:45:56.229Z,51.25
2022-12-03T13:51:28.882Z,50.00
2022-12-03T13:56:36.434Z,47.50
2022-12-03T14:01:38.581Z,51.50
2022-12-03T14:06:40.692Z,50.50
2022-12-03T14:12:01.459Z,50.75
2022-12-03T14:17:04.548Z,56.75
2022-12-03T14:22:08.807Z,38.75
2022-12-03T14:27:10.849Z,40.75
2022-12-03T14:32:12.956Z,51.50
2022-12-03T14:37:15.366Z,45.00
2022-12-03T14:42:18.376Z,48.50
2022-12-03T14:47:22.690Z,46.25
2022-12-03T14:52:26.005Z,56.50
2022-12-03T14:57:28.533Z,51.25
2022-12-03T15:02:30.618Z,54.25
2022-12-03T15:07:32.780Z,49.50
2022-12-03T15:12:34.880Z,54.25
2022-12-03T15:17:36.888Z,53.25
2022-12-03T15:22:39.358Z,48.50
2022-12-03T15:27:41.743Z,43.50
2022-12-03T15:32:44.071Z,51.25
2022-12-03T15:37:46.137Z,55.00
2022-12-03T15:42:49.632Z,56.25
2022-12-03T15:47:52.585Z,56.25
2022-12-03T15:52:54.857Z,47.00
2022-12-03T15:57:56.925Z,48.50
2022-12-03T16:02:58.975Z,48.75
2022-12-03T16:08:01.177Z,64.00
2022-12-03T16:13:03.320Z,43.50
2022-12-03T16:18:05.488Z,74.50
2022-12-03T16:23:08.337Z,46.50
2022-12-03T16:28:10.459Z,53.00
2022-12-03T16:33:12.515Z,46.25
2022-12-03T16:38:14.484Z,45.50
2022-12-03T16:43:16.660Z,53.25
2022-12-03T16:48:19.129Z,52.25
2022-12-03T16:53:21.193Z,55.75
2022-12-03T16:58:26.261Z,53.50
2022-12-03T17:03:33.819Z,48.75
2022-12-03T17:08:37.052Z,47.00
2022-12-03T17:13:39.036Z,46.00
2022-12-03T17:18:41.067Z,57.25
2022-12-03T17:23:44.983Z,48.00
2022-12-03T17:28:55.083Z,67.25
2022-12-03T17:34:00.567Z,60.75
2022-12-03T17:39:02.873Z,55.25
2022-12-03T17:44:09.901Z,56.00
2022-12-03T17:49:12.298Z,49.25
2022-12-03T17:54:14.305Z,47.75
2022-12-03T17:59:16.584Z,51.50
2022-12-03T18:04:18.633Z,60.25
2022-12-03T18:09:20.764Z,60.50
2022-12-03T18:14:23.056Z,50.50
2022-12-03T18:19:25.013Z,52.50
2022-12-03T18:24:27.340Z,59.50
2022-12-03T18:29:29.373Z,47.00
2022-12-03T18:34:31.446Z,45.50
2022-12-03T18:39:36.378Z,59.50
2022-12-03T18:44:38.391Z,55.75
2022-12-03T18:49:40.779Z,54.50
2022-12-03T18:54:43.111Z,51.00
2022-12-03T18:59:45.571Z,54.00
2022-12-03T19:04:48.559Z,102.67
2022-12-03T19:09:50.534Z,62.00
2022-12-03T19:14:52.521Z,50.75
2022-12-03T19:19:55.303Z,48.50
2022-12-03T19:24:57.605Z,57.75
2022-12-03T19:30:07.118Z,53.50
2022-12-03T19:35:11.463Z,55.25
2022-12-03T19:40:14.538Z,61.50
2022-12-03T19:45:16.520Z,48.00
2022-12-03T19:50:22.924Z,44.25
2022-12-03T19:55:25.636Z,83.67
2022-12-03T20:00:27.801Z,75.50
2022-12-03T20:05:36.039Z,63.25
2022-12-03T20:10:38.015Z,49.00
2022-12-03T20:15:39.968Z,57.50
2022-12-03T20:20:41.926Z,56.50
2022-12-03T20:25:43.899Z,52.00
2022-12-03T20:30:47.133Z,73.25
2022-12-03T20:35:56.557Z,77.00
2022-12-03T20:41:06.911Z,49.25
2022-12-03T20:46:14.683Z,74.00
2022-12-03T20:51:19.110Z,58.00
2022-12-03T20:56:28.065Z,45.00
2022-12-03T21:01:30.064Z,86.33
2022-12-03T21:06:34.090Z,44.00
2022-12-03T21:11:39.048Z,69.25
2022-12-03T21:22:04.559Z,55.50
2022-12-03T21:27:06.490Z,67.50
2022-12-03T21:32:08.439Z,53.25
2022-12-03T21:37:10.532Z,70.50
2022-12-03T21:42:19.323Z,61.75
2022-12-03T21:47:37.327Z,53.00
2022-12-03T21:52:39.936Z,64.75
2022-12-03T21:57:41.863Z,50.00
2022-12-03T22:02:44.097Z,82.00
2022-12-03T22:07:46.088Z,42.25
2022-12-03T22:12:48.053Z,37.00
2022-12-03T22:17:50.004Z,58.00
2022-12-03T22:22:51.893Z,54.75
2022-12-03T22:27:53.903Z,49.00
2022-12-03T22:32:55.830Z,46.50
2022-12-03T22:37:57.846Z,53.25
2022-12-03T22:42:59.729Z,44.75
2022-12-03T22:48:02.954Z,57.50
2022-12-03T22:53:04.836Z,56.00
2022-12-03T22:58:08.203Z,53.25
2022-12-03T23:03:10.202Z,47.50
2022-12-03T23:08:19.492Z,53.25
2022-12-03T23:13:21.514Z,48.00
2022-12-03T23:18:23.472Z,41.25
2022-12-03T23:23:27.579Z,41.25
2022-12-03T23:28:31.560Z,49.25
2022-12-03T23:33:38.187Z,55.25
2022-12-03T23:38:41.363Z,65.25
2022-12-03T23:43:43.515Z,37.00
2022-12-03T23:48:45.693Z,57.25
2022-12-03T23:53:47.727Z,79.67
2022-12-03T23:58:49.942Z,72.00
